Time;durP1;ratioP1;P1;durP2;ratioP2;P2;SDS_P1;SDS_P2;PMS_P1;PMS_P2;Temp;Humidity;BMP_temperature;BMP_pressure;BME280_temperature;BME280_humidity;BME280_pressure;Samples;Min_cycle;Max_cycle;Signal;HPM_P1;HPM_P2
2021/06/21 00:02:16;;;;;;;13.87;9.70;;;23.60;99.90;;;;;;5113647;28;20420;-68
2021/06/21 00:04:42;;;;;;;12.30;9.40;;;23.70;99.90;;;;;;5114838;28;20173;-65
2021/06/21 00:07:08;;;;;;;13.33;9.90;;;23.80;99.90;;;;;;5114661;28;20494;-64
2021/06/21 00:09:33;;;;;;;12.90;9.90;;;23.90;99.90;;;;;;5114766;28;20218;-68
2021/06/21 00:11:59;;;;;;;11.17;9.40;;;23.90;99.90;;;;;;5114652;28;20365;-64
2021/06/21 00:14:24;;;;;;;14.60;9.57;;;23.90;99.90;;;;;;5114652;28;20175;-66
2021/06/21 00:16:50;;;;;;;10.17;9.10;;;24.00;99.90;;;;;;5114512;28;20275;-66
2021/06/21 00:19:15;;;;;;;10.13;8.90;;;23.90;99.90;;;;;;5114614;28;20169;-68
2021/06/21 00:21:41;;;;;;;12.63;8.50;;;23.80;99.90;;;;;;5114338;28;20715;-68
2021/06/21 00:24:07;;;;;;;13.53;10.10;;;23.90;99.90;;;;;;5114297;28;20725;-68
2021/06/21 00:26:33;;;;;;;13.43;9.13;;;23.90;99.90;;;;;;5114437;28;20296;-64
2021/06/21 00:28:59;;;;;;;11.20;9.20;;;23.80;99.90;;;;;;5113576;28;20962;-68
2021/06/21 00:31:24;;;;;;;9.87;8.73;;;23.60;99.90;;;;;;5114385;28;20224;-64
2021/06/21 00:33:50;;;;;;;10.53;9.40;;;23.60;99.90;;;;;;5113261;28;20180;-64
2021/06/21 00:36:15;;;;;;;13.40;9.20;;;23.50;99.90;;;;;;5113053;28;20207;-64
2021/06/21 00:38:41;;;;;;;13.47;9.00;;;23.40;99.90;;;;;;5114731;28;20177;-68
2021/06/21 00:41:07;;;;;;;11.00;9.90;;;23.20;99.90;;;;;;5114185;28;20226;-64
2021/06/21 00:43:32;;;;;;;10.37;9.40;;;23.30;99.90;;;;;;5114646;28;20174;-64
2021/06/21 00:45:58;;;;;;;10.70;9.73;;;23.30;99.90;;;;;;5114053;28;20223;-67
2021/06/21 00:48:24;;;;;;;12.50;9.10;;;23.30;99.90;;;;;;5114528;28;20654;-69
2021/06/21 00:50:49;;;;;;;13.93;10.10;;;23.30;99.90;;;;;;5114125;28;20200;-64
2021/06/21 00:53:16;;;;;;;12.40;10.10;;;23.40;99.90;;;;;;5112921;28;20427;-66
2021/06/21 00:55:42;;;;;;;12.60;10.37;;;23.20;99.90;;;;;;5114076;28;20246;-64
2021/06/21 00:58:08;;;;;;;10.63;9.57;;;23.20;99.90;;;;;;5112811;28;20482;-67
2021/06/21 01:00:33;;;;;;;12.40;10.00;;;23.10;99.90;;;;;;5114056;28;20423;-67
2021/06/21 01:03:03;;;;;;;12.07;9.93;;;23.10;99.90;;;;;;5114337;28;20244;-64
2021/06/21 01:05:31;;;;;;;11.23;10.13;;;23.10;99.90;;;;;;5114587;28;20575;-68
2021/06/21 01:07:57;;;;;;;10.80;9.20;;;23.10;99.90;;;;;;5114202;28;20452;-68
2021/06/21 01:10:24;;;;;;;11.10;10.00;;;23.20;99.90;;;;;;5116971;28;20452;-64
2021/06/21 01:13:12;;;;;;;10.23;8.93;;;23.20;99.90;;;;;;5116942;28;20271;-68
2021/06/21 01:15:44;;;;;;;9.60;8.60;;;23.10;99.90;;;;;;5118056;28;20427;-68
2021/06/21 01:18:20;;;;;;;11.83;9.73;;;23.10;99.90;;;;;;5118326;28;20412;-68
2021/06/21 01:21:11;;;;;;;11.93;9.47;;;23.20;99.90;;;;;;5116552;28;20432;-64
2021/06/21 01:24:07;;;;;;;12.80;9.20;;;23.00;99.90;;;;;;5116668;28;20475;-68
2021/06/21 01:26:45;;;;;;;9.87;8.87;;;23.00;99.90;;;;;;5116555;28;20997;-68
2021/06/21 01:29:42;;;;;;;15.63;9.80;;;23.00;99.90;;;;;;5116596;28;20430;-64
2021/06/21 01:32:09;;;;;;;10.80;9.47;;;23.00;99.90;;;;;;5117641;28;20784;-69
2021/06/21 01:34:37;;;;;;;12.27;9.80;;;22.90;99.90;;;;;;5116473;28;20412;-64
2021/06/21 01:37:04;;;;;;;12.07;10.60;;;22.80;99.90;;;;;;5117607;28;20436;-68
2021/06/21 01:39:34;;;;;;;11.97;10.50;;;22.80;99.90;;;;;;5116335;28;20409;-64
2021/06/21 01:42:21;;;;;;;15.83;10.87;;;22.70;99.90;;;;;;5116262;28;21083;-69
2021/06/21 01:45:01;;;;;;;10.10;9.10;;;22.70;99.90;;;;;;5117344;28;20423;-64
2021/06/21 01:47:28;;;;;;;13.57;12.00;;;22.70;99.90;;;;;;5116264;28;20416;-64
2021/06/21 01:49:56;;;;;;;14.70;11.40;;;22.70;99.90;;;;;;5116103;28;20412;-67
2021/06/21 01:52:22;;;;;;;15.47;11.30;;;22.60;99.90;;;;;;5117446;28;20421;-64
2021/06/21 01:54:54;;;;;;;11.83;10.67;;;22.60;99.90;;;;;;5117216;28;20416;-64
2021/06/21 01:57:30;;;;;;;15.10;10.90;;;22.50;99.90;;;;;;5117410;28;20454;-64
2021/06/21 01:59:56;;;;;;;14.67;12.07;;;22.50;99.90;;;;;;5115940;28;20423;-64
2021/06/21 02:02:24;;;;;;;12.23;11.07;;;22.50;99.90;;;;;;5117331;27;20415;-69
2021/06/21 02:04:54;;;;;;;12.83;11.10;;;22.50;99.90;;;;;;5117044;28;20401;-64
2021/06/21 02:07:21;;;;;;;15.23;11.07;;;22.50;99.90;;;;;;5117167;28;20758;-64
2021/06/21 02:09:48;;;;;;;14.40;10.87;;;22.50;99.90;;;;;;5116940;28;20404;-64
2021/06/21 02:12:18;;;;;;;12.53;10.40;;;22.60;99.90;;;;;;5117086;28;20770;-64
2021/06/21 02:14:48;;;;;;;15.40;11.87;;;22.60;99.90;;;;;;5116995;28;20408;-64
2021/06/21 02:17:15;;;;;;;13.57;10.13;;;22.60;99.90;;;;;;5117248;28;20408;-64
2021/06/21 02:19:41;;;;;;;12.87;9.97;;;22.40;99.90;;;;;;5116940;27;20400;-67
2021/06/21 02:22:07;;;;;;;13.30;10.67;;;22.40;99.90;;;;;;5113962;28;20841;-66
2021/06/21 02:24:36;;;;;;;14.63;12.17;;;22.40;99.90;;;;;;5116811;28;20389;-64
2021/06/21 02:27:03;;;;;;;17.37;10.33;;;22.40;99.90;;;;;;5116667;28;20204;-68
2021/06/21 02:29:30;;;;;;;12.57;10.63;;;22.20;99.90;;;;;;5115423;28;20952;-67
2021/06/21 02:31:56;;;;;;;17.80;11.37;;;22.20;99.90;;;;;;5116615;28;20423;-64
2021/06/21 02:34:22;;;;;;;16.53;11.00;;;22.10;99.90;;;;;;5116635;28;20412;-64
2021/06/21 02:36:49;;;;;;;15.13;11.30;;;22.20;99.90;;;;;;5116468;28;20431;-64
2021/06/21 02:39:16;;;;;;;11.90;9.97;;;22.20;99.90;;;;;;5116559;28;20172;-64
2021/06/21 02:41:42;;;;;;;11.90;10.30;;;22.30;99.90;;;;;;5116360;28;20424;-68
2021/06/21 02:44:08;;;;;;;14.23;10.67;;;22.10;99.90;;;;;;5115136;28;20450;-68
2021/06/21 02:46:34;;;;;;;14.63;10.10;;;22.00;99.90;;;;;;5116241;28;20864;-68
2021/06/21 02:49:00;;;;;;;11.67;10.57;;;21.90;99.90;;;;;;5116795;28;20211;-64
2021/06/21 02:51:43;;;;;;;12.50;11.00;;;21.80;99.90;;;;;;5116198;28;20849;-68
2021/06/21 02:54:33;;;;;;;17.20;10.90;;;21.70;99.90;;;;;;5116323;28;20682;-69
2021/06/21 02:57:18;;;;;;;11.57;9.43;;;21.80;99.90;;;;;;5116013;28;20416;-67
2021/06/21 02:59:48;;;;;;;11.20;9.97;;;21.80;99.90;;;;;;5114936;28;20424;-64
2021/06/21 03:02:16;;;;;;;10.50;9.00;;;21.90;99.90;;;;;;5116177;28;20415;-67
2021/06/21 03:04:44;;;;;;;13.83;10.40;;;22.00;99.90;;;;;;5115956;28;20408;-64
2021/06/21 03:07:13;;;;;;;16.10;11.20;;;21.90;99.90;;;;;;5115948;28;20446;-64
2021/06/21 03:09:43;;;;;;;11.43;10.10;;;21.90;99.90;;;;;;5115940;28;20416;-68
2021/06/21 03:12:10;;;;;;;14.27;10.63;;;21.90;99.90;;;;;;5114449;28;20479;-64
2021/06/21 03:14:36;;;;;;;12.53;10.83;;;21.90;99.90;;;;;;5115852;28;20736;-64
2021/06/21 03:17:06;;;;;;;11.93;10.70;;;21.80;99.90;;;;;;5115725;28;20436;-69
2021/06/21 03:19:32;;;;;;;16.53;11.53;;;21.70;99.90;;;;;;5115838;28;20404;-68
2021/06/21 03:21:58;;;;;;;13.93;10.33;;;21.70;99.90;;;;;;5115393;28;20438;-64
2021/06/21 03:24:25;;;;;;;11.37;10.17;;;21.80;99.90;;;;;;5115850;28;20940;-68
2021/06/21 03:26:51;;;;;;;21.17;11.23;;;21.90;99.90;;;;;;5114105;28;20215;-64
2021/06/21 03:29:19;;;;;;;18.93;11.83;;;21.80;99.90;;;;;;5115589;28;20415;-67
2021/06/21 03:31:46;;;;;;;14.03;11.73;;;21.80;99.90;;;;;;5115018;28;20432;-64
2021/06/21 03:34:12;;;;;;;16.33;11.43;;;21.90;99.90;;;;;;5115524;28;20400;-68
2021/06/21 03:36:39;;;;;;;19.33;11.37;;;21.90;99.90;;;;;;5115316;28;20480;-68
2021/06/21 03:39:05;;;;;;;20.47;12.20;;;22.00;99.90;;;;;;5114183;28;20431;-68
2021/06/21 03:41:30;;;;;;;13.13;11.63;;;22.00;99.90;;;;;;5115230;28;20511;-64
2021/06/21 03:43:56;;;;;;;13.33;11.40;;;22.10;99.90;;;;;;5114104;28;20518;-68
2021/06/21 03:46:22;;;;;;;13.17;11.40;;;22.10;99.90;;;;;;5114998;28;20211;-64
2021/06/21 03:48:47;;;;;;;13.13;11.80;;;22.20;99.90;;;;;;5115587;28;20187;-64
2021/06/21 03:51:13;;;;;;;13.60;10.80;;;22.30;99.90;;;;;;5115079;28;20195;-67
2021/06/21 03:53:38;;;;;;;13.57;11.33;;;22.30;99.90;;;;;;5115515;28;20184;-64
2021/06/21 03:56:04;;;;;;;12.70;11.40;;;22.30;99.90;;;;;;5114965;28;20703;-68
2021/06/21 03:58:30;;;;;;;12.53;11.33;;;22.40;99.90;;;;;;5115377;28;20182;-67
2021/06/21 04:00:55;;;;;;;12.33;11.00;;;22.50;99.90;;;;;;5114842;28;20215;-64
2021/06/21 04:03:23;;;;;;;13.00;11.00;;;22.60;99.90;;;;;;5115347;28;20179;-67
2021/06/21 04:05:49;;;;;;;13.17;11.40;;;22.70;99.90;;;;;;5114832;28;20743;-64
2021/06/21 04:08:16;;;;;;;14.60;11.00;;;22.70;99.90;;;;;;5115029;28;20419;-64
2021/06/21 04:10:43;;;;;;;12.60;11.37;;;22.70;99.90;;;;;;5114792;28;20952;-64
2021/06/21 04:13:10;;;;;;;15.17;12.33;;;22.70;99.90;;;;;;5113378;28;20750;-67
2021/06/21 04:15:36;;;;;;;16.83;11.53;;;22.70;99.90;;;;;;5113375;28;20432;-68
2021/06/21 04:18:05;;;;;;;15.70;10.93;;;22.60;99.90;;;;;;5114823;28;20577;-69
2021/06/21 04:20:32;;;;;;;18.43;10.90;;;22.70;99.90;;;;;;5114540;28;20428;-69
2021/06/21 04:22:58;;;;;;;17.37;11.77;;;22.80;99.90;;;;;;5113170;28;20564;-67
2021/06/21 04:25:25;;;;;;;11.53;10.00;;;22.90;99.90;;;;;;5114363;27;20463;-68
2021/06/21 04:27:51;;;;;;;14.60;10.33;;;23.00;99.90;;;;;;5114643;28;20495;-64
2021/06/21 04:30:19;;;;;;;12.40;11.07;;;23.20;99.90;;;;;;5114451;28;20430;-67
2021/06/21 04:32:45;;;;;;;15.73;11.20;;;23.20;99.90;;;;;;5113156;28;20514;-64
2021/06/21 04:35:14;;;;;;;15.07;11.30;;;23.20;99.90;;;;;;5114295;28;20452;-69
2021/06/21 04:37:40;;;;;;;14.17;10.50;;;23.20;99.90;;;;;;5114538;28;20237;-68
2021/06/21 04:40:07;;;;;;;19.60;11.90;;;23.30;99.90;;;;;;5114227;28;20424;-64
2021/06/21 04:42:33;;;;;;;17.20;11.43;;;23.50;99.90;;;;;;5112914;28;20180;-67
2021/06/21 04:44:58;;;;;;;16.00;11.70;;;23.60;99.90;;;;;;5112070;28;20534;-68
2021/06/21 04:47:24;;;;;;;12.33;10.93;;;23.70;99.90;;;;;;5113029;28;20184;-64
2021/06/21 04:49:55;;;;;;;15.73;11.03;;;23.80;99.90;;;;;;5114157;28;20177;-68
2021/06/21 04:52:24;;;;;;;13.10;10.80;;;24.00;99.90;;;;;;5114251;28;20637;-64
2021/06/21 04:54:51;;;;;;;13.20;11.90;;;24.10;99.90;;;;;;5114373;28;20497;-68
2021/06/21 04:57:17;;;;;;;11.07;9.87;;;24.20;99.90;;;;;;5114343;28;20423;-68
2021/06/21 04:59:44;;;;;;;10.57;9.40;;;24.40;99.90;;;;;;5112799;28;20420;-65
2021/06/21 05:02:09;;;;;;;11.70;10.60;;;24.70;99.90;;;;;;5113960;28;20524;-64
2021/06/21 05:04:35;;;;;;;11.30;10.03;;;24.70;99.90;;;;;;5113553;28;20496;-66
2021/06/21 05:07:03;;;;;;;11.00;9.00;;;24.80;99.90;;;;;;5112354;28;20248;-68
2021/06/21 05:09:29;;;;;;;11.47;10.33;;;24.80;99.90;;;;;;5112021;28;20177;-68
2021/06/21 05:11:55;;;;;;;10.93;9.83;;;24.70;99.90;;;;;;5113899;28;20507;-66
2021/06/21 05:14:21;;;;;;;9.83;8.67;;;24.90;99.90;;;;;;5113982;28;20779;-69
2021/06/21 05:16:47;;;;;;;11.87;8.37;;;25.00;99.90;;;;;;5112517;28;20444;-64
2021/06/21 05:19:12;;;;;;;11.10;9.20;;;25.00;99.90;;;;;;5113875;28;20178;-65
2021/06/21 05:21:38;;;;;;;16.77;9.57;;;25.00;99.90;;;;;;5113929;28;20193;-68
2021/06/21 05:24:04;;;;;;;10.23;8.70;;;25.00;99.90;;;;;;5113371;28;20237;-64
2021/06/21 05:26:30;;;;;;;9.40;8.17;;;25.20;99.90;;;;;;5113635;28;20275;-68
2021/06/21 05:28:55;;;;;;;8.37;7.53;;;25.40;99.90;;;;;;5114320;28;20425;-64
2021/06/21 05:31:22;;;;;;;7.20;6.53;;;25.30;99.90;;;;;;5112340;28;20553;-64
2021/06/21 05:33:48;;;;;;;8.83;6.87;;;25.50;99.90;;;;;;5113596;28;20273;-68
2021/06/21 05:36:13;;;;;;;20.53;8.57;;;25.30;99.90;;;;;;5112075;28;21019;-67
2021/06/21 05:38:39;;;;;;;10.20;7.03;;;25.30;99.90;;;;;;5106935;28;20223;-64
2021/06/21 05:41:05;;;;;;;7.43;6.73;;;25.30;99.90;;;;;;5107241;28;20199;-68
2021/06/21 05:43:31;;;;;;;8.27;7.47;;;25.50;99.90;;;;;;5110117;28;20183;-64
2021/06/21 05:45:56;;;;;;;10.80;7.27;;;25.70;99.90;;;;;;5108534;28;20366;-64
2021/06/21 05:48:22;;;;;;;11.33;7.63;;;25.90;99.90;;;;;;5107496;28;20192;-69
2021/06/21 05:50:50;;;;;;;7.90;6.97;;;26.00;99.90;;;;;;5098278;28;20206;-69
2021/06/21 05:53:16;;;;;;;10.57;7.70;;;25.80;99.90;;;;;;5101001;27;20183;-68
2021/06/21 05:55:41;;;;;;;7.60;6.80;;;25.80;99.90;;;;;;5101601;27;20455;-69
2021/06/21 05:58:07;;;;;;;10.27;6.93;;;25.90;99.90;;;;;;5107085;27;20175;-69
2021/06/21 06:00:33;;;;;;;12.30;8.17;;;26.00;99.90;;;;;;5109134;27;20214;-70
2021/06/21 06:02:58;;;;;;;8.30;6.67;;;26.20;99.90;;;;;;5106857;27;20605;-65
2021/06/21 06:05:25;;;;;;;8.87;7.43;;;26.20;99.90;;;;;;5110658;27;20286;-65
2021/06/21 06:07:50;;;;;;;8.03;6.70;;;26.20;99.90;;;;;;5111813;27;20198;-64
2021/06/21 06:10:16;;;;;;;7.67;6.97;;;26.50;99.90;;;;;;5110665;27;20446;-65
2021/06/21 06:12:42;;;;;;;8.57;7.23;;;26.80;99.90;;;;;;5109949;27;20680;-70
2021/06/21 06:15:09;;;;;;;9.13;7.07;;;26.70;99.90;;;;;;5106557;27;20609;-70
2021/06/21 06:17:34;;;;;;;7.23;6.53;;;27.00;99.90;;;;;;5105498;27;20435;-65
2021/06/21 06:20:00;;;;;;;7.50;6.73;;;27.00;99.90;;;;;;5105955;27;20483;-70
2021/06/21 06:22:26;;;;;;;10.80;6.80;;;26.90;99.90;;;;;;5104931;27;20829;-69
2021/06/21 06:24:52;;;;;;;7.37;6.77;;;27.20;99.90;;;;;;5103490;27;20640;-70
2021/06/21 06:27:17;;;;;;;9.03;6.83;;;27.20;99.90;;;;;;5107453;27;20271;-69
2021/06/21 06:29:43;;;;;;;8.13;7.07;;;27.20;99.90;;;;;;5105514;27;20920;-70
2021/06/21 06:32:09;;;;;;;9.40;6.67;;;27.10;99.90;;;;;;5102720;27;20294;-69
2021/06/21 06:34:35;;;;;;;8.27;6.43;;;27.20;99.90;;;;;;5109312;27;20183;-69
2021/06/21 06:37:01;;;;;;;7.87;5.50;;;27.40;99.90;;;;;;5106944;27;20507;-70
2021/06/21 06:39:27;;;;;;;7.03;6.23;;;27.50;99.90;;;;;;5105552;27;20436;-66
2021/06/21 06:41:53;;;;;;;9.50;6.30;;;27.60;99.90;;;;;;5109978;27;21455;-69
2021/06/21 06:44:20;;;;;;;5.50;5.10;;;27.50;99.90;;;;;;5102835;27;20937;-69
2021/06/21 06:46:46;;;;;;;5.53;5.03;;;27.50;99.90;;;;;;5106859;27;20524;-70
2021/06/21 06:49:11;;;;;;;5.80;5.17;;;27.70;99.90;;;;;;5104359;27;20860;-69
2021/06/21 06:51:50;;;;;;;5.70;5.20;;;28.20;99.90;;;;;;5104460;27;20295;-68
2021/06/21 06:57:02;;;;;;;8.93;5.27;;;28.60;99.90;;;;;;5108435;27;20455;-69
2021/06/21 06:59:37;;;;;;;5.67;5.17;;;28.30;99.90;;;;;;5108556;27;20175;-65
2021/06/21 07:02:08;;;;;;;8.63;4.57;;;28.40;99.90;;;;;;5101971;27;20504;-65
2021/06/21 07:04:35;;;;;;;9.07;5.33;;;28.70;99.90;;;;;;5103574;27;20423;-70
2021/06/21 07:07:01;;;;;;;5.33;4.83;;;28.90;99.90;;;;;;5101069;27;20490;-65
2021/06/21 07:09:29;;;;;;;5.20;4.43;;;29.00;99.90;;;;;;5108289;27;20407;-70
2021/06/21 07:11:55;;;;;;;5.63;5.23;;;28.90;99.90;;;;;;5102310;27;20534;-65
2021/06/21 07:14:21;;;;;;;5.30;4.57;;;28.90;99.90;;;;;;5100878;27;20425;-66
2021/06/21 07:16:48;;;;;;;5.50;5.00;;;29.00;99.90;;;;;;5105422;27;20291;-65
2021/06/21 07:19:17;;;;;;;5.30;4.83;;;29.20;99.90;;;;;;5106916;27;20489;-70
2021/06/21 07:21:43;;;;;;;9.53;5.07;;;29.30;99.90;;;;;;5107358;27;20447;-69
2021/06/21 07:24:09;;;;;;;4.83;4.43;;;29.60;99.90;;;;;;5103842;27;21073;-66
2021/06/21 07:26:37;;;;;;;6.67;5.30;;;29.60;99.90;;;;;;5104643;27;20570;-65
2021/06/21 07:29:03;;;;;;;8.37;5.00;;;29.70;99.90;;;;;;5108827;27;20421;-65
2021/06/21 07:31:29;;;;;;;4.70;4.30;;;29.90;99.90;;;;;;5107123;27;20541;-70
2021/06/21 07:33:54;;;;;;;5.80;4.53;;;29.50;99.90;;;;;;5104932;27;21111;-69
2021/06/21 07:36:20;;;;;;;4.57;4.17;;;29.40;99.90;;;;;;5106045;27;20210;-65
2021/06/21 07:38:46;;;;;;;5.60;4.77;;;29.60;99.90;;;;;;5104444;27;20609;-65
2021/06/21 07:41:12;;;;;;;5.43;4.67;;;29.60;99.90;;;;;;5100857;27;20210;-69
2021/06/21 07:43:38;;;;;;;6.93;4.53;;;29.80;99.90;;;;;;5097062;27;20437;-65
2021/06/21 07:46:05;;;;;;;4.90;4.50;;;29.80;99.90;;;;;;5105375;27;20303;-65
2021/06/21 07:48:31;;;;;;;4.73;4.23;;;29.90;99.90;;;;;;5105425;27;20597;-68
2021/06/21 07:50:56;;;;;;;6.37;4.90;;;30.00;99.90;;;;;;5106484;27;20473;-66
2021/06/21 07:53:22;;;;;;;4.40;4.00;;;29.70;99.90;;;;;;5100958;27;21099;-70
2021/06/21 07:55:48;;;;;;;6.13;5.40;;;30.00;99.90;;;;;;5101326;27;20203;-65
2021/06/21 07:58:13;;;;;;;6.40;5.03;;;30.00;99.90;;;;;;5102702;27;20985;-65
2021/06/21 08:00:40;;;;;;;10.93;5.40;;;30.00;99.90;;;;;;5106057;27;20260;-65
2021/06/21 08:03:09;;;;;;;5.70;5.20;;;30.00;99.90;;;;;;5099008;27;20182;-66
2021/06/21 08:05:36;;;;;;;4.90;4.47;;;29.80;99.90;;;;;;5108628;28;20822;-70
2021/06/21 08:08:02;;;;;;;5.80;5.00;;;29.90;99.90;;;;;;5105163;28;20427;-66
2021/06/21 08:10:28;;;;;;;7.47;5.23;;;30.30;99.90;;;;;;5107020;28;20788;-66
2021/06/21 08:12:54;;;;;;;8.93;4.67;;;30.50;99.90;;;;;;5109681;28;20436;-69
2021/06/21 08:15:19;;;;;;;7.20;5.67;;;30.40;99.90;;;;;;5109685;27;20233;-69
2021/06/21 08:17:45;;;;;;;4.70;4.30;;;30.30;99.90;;;;;;5113750;28;20184;-65
2021/06/21 08:20:12;;;;;;;5.83;5.20;;;30.30;99.90;;;;;;5112043;28;20737;-70
2021/06/21 08:22:37;;;;;;;5.70;5.20;;;30.30;99.90;;;;;;5108098;28;20680;-70
2021/06/21 08:25:05;;;;;;;5.50;5.10;;;30.50;99.90;;;;;;5112028;27;20429;-69
2021/06/21 08:27:31;;;;;;;7.00;4.57;;;30.30;99.90;;;;;;5105263;27;20185;-70
2021/06/21 08:29:58;;;;;;;4.60;4.20;;;30.30;99.90;;;;;;5109323;28;20415;-68
2021/06/21 08:32:24;;;;;;;6.00;5.50;;;30.40;99.90;;;;;;5108022;28;20429;-70
2021/06/21 08:34:49;;;;;;;28.10;6.03;;;30.50;99.90;;;;;;5109975;28;20836;-68
2021/06/21 08:37:17;;;;;;;4.90;4.50;;;30.80;99.90;;;;;;5110507;28;20729;-65
2021/06/21 08:39:43;;;;;;;5.13;4.63;;;31.10;99.90;;;;;;5109256;28;20173;-65
2021/06/21 08:42:10;;;;;;;5.90;5.50;;;30.90;99.90;;;;;;5110717;28;20486;-65
2021/06/21 08:44:36;;;;;;;7.37;5.17;;;31.10;99.90;;;;;;5111040;28;20416;-68
2021/06/21 08:47:03;;;;;;;5.40;5.00;;;30.90;99.90;;;;;;5109872;28;20497;-68
2021/06/21 08:49:33;;;;;;;5.03;4.63;;;31.10;99.90;;;;;;5111200;28;20417;-65
2021/06/21 08:51:59;;;;;;;5.23;4.83;;;31.00;99.90;;;;;;5110544;28;20435;-69
2021/06/21 08:54:24;;;;;;;5.80;5.20;;;31.00;99.90;;;;;;5110777;28;20435;-69
2021/06/21 08:56:54;;;;;;;5.77;5.27;;;31.00;99.90;;;;;;5109623;28;20445;-69
2021/06/21 08:59:20;;;;;;;5.73;5.13;;;31.40;99.90;;;;;;5111620;28;20534;-70
2021/06/21 09:01:46;;;;;;;5.30;4.90;;;31.40;99.90;;;;;;5112709;28;20450;-65
2021/06/21 09:04:12;;;;;;;7.03;4.30;;;31.60;99.90;;;;;;5113027;28;20256;-66
2021/06/21 09:06:39;;;;;;;5.30;4.83;;;31.70;99.90;;;;;;5113218;28;20242;-69
2021/06/21 09:09:06;;;;;;;6.23;5.63;;;31.40;99.90;;;;;;5112434;28;20183;-70
2021/06/21 09:11:47;;;;;;;5.67;5.17;;;31.40;99.90;;;;;;5111554;28;20447;-65
2021/06/21 09:14:25;;;;;;;6.20;5.80;;;31.30;99.90;;;;;;5112358;28;20435;-69
2021/06/21 09:17:04;;;;;;;5.33;4.83;;;31.50;99.90;;;;;;5106577;28;20911;-69
2021/06/21 09:19:42;;;;;;;5.53;5.13;;;31.20;99.90;;;;;;5106712;28;20559;-65
2021/06/21 09:22:22;;;;;;;6.70;5.43;;;31.60;99.80;;;;;;5108218;28;20486;-67
2021/06/21 09:24:47;;;;;;;5.43;5.00;;;31.60;99.90;;;;;;5105200;28;20438;-69
2021/06/21 09:27:18;;;;;;;5.77;5.23;;;31.70;99.00;;;;;;5109435;28;20475;-65
2021/06/21 09:29:43;;;;;;;6.17;5.60;;;31.80;99.90;;;;;;5103149;28;20637;-69
2021/06/21 09:32:09;;;;;;;4.87;4.57;;;32.00;99.20;;;;;;5108100;28;20465;-65
2021/06/21 09:34:38;;;;;;;7.50;5.47;;;32.40;99.20;;;;;;5113728;28;21020;-68
2021/06/21 09:37:18;;;;;;;8.10;5.60;;;32.70;98.00;;;;;;5113823;28;20730;-70
2021/06/21 09:39:49;;;;;;;5.70;5.30;;;32.30;98.50;;;;;;5108183;28;20427;-70
2021/06/21 09:42:26;;;;;;;6.37;5.87;;;32.10;98.20;;;;;;5113876;28;20446;-69
2021/06/21 09:44:57;;;;;;;6.03;5.53;;;32.10;98.00;;;;;;5107902;27;20427;-65
2021/06/21 09:47:34;;;;;;;5.50;5.10;;;32.00;98.10;;;;;;5112705;28;20428;-69
2021/06/21 09:50:13;;;;;;;6.70;5.70;;;32.00;98.80;;;;;;5109219;28;20523;-69
2021/06/21 09:52:44;;;;;;;6.87;6.17;;;32.30;98.60;;;;;;5113544;28;20779;-70
2021/06/21 09:55:32;;;;;;;5.40;5.00;;;31.90;97.70;;;;;;5112655;28;20455;-69
2021/06/21 09:58:13;;;;;;;6.07;5.67;;;31.90;98.20;;;;;;5108958;28;20431;-65
2021/06/21 10:01:12;;;;;;;6.50;6.00;;;32.30;97.70;;;;;;5108510;28;20516;-69
2021/06/21 10:03:43;;;;;;;6.43;5.83;;;32.60;97.70;;;;;;5107572;28;20440;-65
2021/06/21 10:06:13;;;;;;;6.13;5.53;;;32.30;97.70;;;;;;5112585;28;20471;-68
2021/06/21 10:08:41;;;;;;;6.00;5.40;;;32.60;97.80;;;;;;5114278;28;20809;-68
2021/06/21 10:11:31;;;;;;;6.57;5.57;;;33.00;97.80;;;;;;5112723;28;20447;-65
2021/06/21 10:14:01;;;;;;;5.97;5.37;;;33.20;97.30;;;;;;5112232;28;21325;-69
2021/06/21 10:16:27;;;;;;;5.83;5.43;;;32.90;96.80;;;;;;5112640;28;20791;-69
2021/06/21 10:18:56;;;;;;;10.27;6.23;;;32.30;96.80;;;;;;5115672;28;20439;-65
2021/06/21 10:21:23;;;;;;;5.60;5.10;;;32.20;97.80;;;;;;5114686;28;20232;-68
2021/06/21 10:23:49;;;;;;;5.63;5.17;;;32.30;97.90;;;;;;5115697;28;20566;-65
2021/06/21 10:26:15;;;;;;;6.13;5.63;;;32.60;97.60;;;;;;5112578;28;20554;-68
2021/06/21 10:28:41;;;;;;;6.03;5.60;;;32.60;97.10;;;;;;5111768;28;20291;-69
2021/06/21 10:31:06;;;;;;;6.70;6.10;;;32.50;96.40;;;;;;5110516;28;20464;-66
2021/06/21 10:33:34;;;;;;;5.63;5.13;;;32.90;96.00;;;;;;5113334;28;20184;-66
2021/06/21 10:36:05;;;;;;;5.50;5.00;;;33.00;96.60;;;;;;5108651;28;20195;-70
2021/06/21 10:38:31;;;;;;;6.53;6.03;;;32.30;96.70;;;;;;5111112;28;20435;-65
2021/06/21 10:41:01;;;;;;;6.10;5.67;;;32.00;97.10;;;;;;5110178;28;20440;-68
2021/06/21 10:43:46;;;;;;;7.47;6.57;;;32.20;96.70;;;;;;5111566;28;20264;-68
2021/06/21 10:46:18;;;;;;;8.23;6.63;;;32.50;96.90;;;;;;5112451;28;20472;-65
2021/06/21 10:49:08;;;;;;;8.13;5.53;;;32.50;96.50;;;;;;5113984;28;20425;-65
2021/06/21 10:51:39;;;;;;;6.83;6.17;;;32.60;96.00;;;;;;5111724;28;20456;-66
2021/06/21 10:54:07;;;;;;;5.90;5.50;;;33.40;95.70;;;;;;5115700;28;20531;-65
2021/06/21 10:56:52;;;;;;;6.90;6.30;;;33.10;96.10;;;;;;5112625;28;20479;-69
2021/06/21 10:59:21;;;;;;;5.50;5.10;;;33.10;96.20;;;;;;5115552;27;20436;-65
2021/06/21 11:02:05;;;;;;;6.83;6.30;;;33.10;95.70;;;;;;5114803;28;20869;-68
2021/06/21 11:04:38;;;;;;;6.20;5.60;;;32.50;96.00;;;;;;5112170;27;20763;-69
2021/06/21 11:07:16;;;;;;;6.13;5.63;;;32.50;96.30;;;;;;5111558;28;20890;-69
2021/06/21 11:09:45;;;;;;;7.43;5.53;;;32.80;95.70;;;;;;5112556;28;20408;-65
2021/06/21 11:12:22;;;;;;;7.10;6.50;;;32.50;95.80;;;;;;5111968;28;20464;-69
2021/06/21 11:15:07;;;;;;;6.13;5.43;;;32.90;96.30;;;;;;5109021;27;20428;-65
2021/06/21 11:17:53;;;;;;;5.90;5.50;;;33.30;95.40;;;;;;5111136;28;20440;-70
2021/06/21 11:20:31;;;;;;;6.20;5.70;;;33.10;95.30;;;;;;5108637;28;20447;-65
2021/06/21 11:22:59;;;;;;;6.13;5.63;;;32.60;95.40;;;;;;5107482;28;20930;-70
2021/06/21 11:25:49;;;;;;;6.23;5.70;;;33.00;95.30;;;;;;5109164;28;20467;-65
2021/06/21 11:28:46;;;;;;;5.60;5.20;;;33.40;94.80;;;;;;5095470;28;20451;-68
2021/06/21 11:31:26;;;;;;;6.20;5.60;;;33.70;94.40;;;;;;5098925;28;20459;-68
2021/06/21 11:33:53;;;;;;;6.37;5.97;;;33.60;94.80;;;;;;5108735;28;20808;-66
2021/06/21 11:36:57;;;;;;;5.87;5.37;;;33.50;94.80;;;;;;5103707;28;20551;-70
2021/06/21 11:39:28;;;;;;;6.30;5.80;;;33.20;95.30;;;;;;5064207;28;20418;-65
2021/06/21 11:42:01;;;;;;;6.63;6.07;;;33.80;94.90;;;;;;5066372;28;20523;-65
2021/06/21 11:44:39;;;;;;;7.17;6.50;;;33.70;95.00;;;;;;5087953;28;20819;-65
2021/06/21 11:47:17;;;;;;;8.03;6.00;;;33.60;94.00;;;;;;5107352;28;20482;-65
2021/06/21 11:49:46;;;;;;;6.90;6.30;;;33.40;94.40;;;;;;5106126;28;20416;-70
2021/06/21 11:52:23;;;;;;;6.30;5.70;;;33.20;94.80;;;;;;5105805;28;20550;-65
2021/06/21 11:54:50;;;;;;;7.53;6.83;;;33.10;95.10;;;;;;5104906;28;20948;-65
2021/06/21 11:57:18;;;;;;;6.20;5.70;;;33.00;94.50;;;;;;5110458;28;20803;-69
2021/06/21 11:59:46;;;;;;;7.13;6.53;;;33.10;94.30;;;;;;5108528;28;20436;-65
2021/06/21 12:02:25;;;;;;;6.60;6.20;;;33.00;94.60;;;;;;5105523;28;20443;-68
2021/06/21 12:04:56;;;;;;;6.93;6.33;;;33.10;95.30;;;;;;5098270;28;20444;-68
2021/06/21 12:07:32;;;;;;;6.90;6.30;;;32.80;94.90;;;;;;5106767;28;20462;-68
2021/06/21 12:09:59;;;;;;;7.03;6.40;;;33.30;94.60;;;;;;5103176;28;20416;-70
2021/06/21 12:12:27;;;;;;;7.80;6.10;;;33.00;94.60;;;;;;5106013;28;20470;-65
2021/06/21 12:14:53;;;;;;;7.13;6.43;;;32.70;95.10;;;;;;5105085;28;20480;-70
2021/06/21 12:17:25;;;;;;;7.63;6.93;;;32.90;95.10;;;;;;5108549;28;20440;-66
2021/06/21 12:20:18;;;;;;;6.10;5.60;;;32.90;95.40;;;;;;5107909;28;20435;-65
2021/06/21 12:22:58;;;;;;;6.70;5.57;;;33.10;95.40;;;;;;5109406;28;21072;-68
2021/06/21 12:25:27;;;;;;;6.80;6.30;;;33.10;94.50;;;;;;5107422;28;20460;-65
2021/06/21 12:27:53;;;;;;;6.27;5.67;;;33.00;95.10;;;;;;5110306;28;20428;-68
2021/06/21 12:30:33;;;;;;;7.00;6.50;;;33.50;94.00;;;;;;5108875;28;20475;-66
2021/06/21 12:32:59;;;;;;;7.07;6.43;;;33.80;93.90;;;;;;5101586;28;20780;-68
2021/06/21 12:35:24;;;;;;;7.37;6.63;;;33.20;93.60;;;;;;5111107;28;20448;-65
2021/06/21 12:37:50;;;;;;;8.80;6.40;;;32.90;94.20;;;;;;5108546;28;20186;-65
2021/06/21 12:40:18;;;;;;;6.70;6.07;;;33.10;94.00;;;;;;5111161;28;20667;-65
2021/06/21 12:42:45;;;;;;;8.30;6.67;;;33.40;94.00;;;;;;5105861;28;20191;-65
2021/06/21 12:45:20;;;;;;;6.80;6.10;;;33.70;93.80;;;;;;5111034;28;20864;-69
2021/06/21 12:47:54;;;;;;;8.23;6.83;;;33.70;94.00;;;;;;5109306;28;20504;-66
2021/06/21 12:50:21;;;;;;;7.07;6.30;;;34.10;92.90;;;;;;5110571;28;20975;-69
2021/06/21 12:52:48;;;;;;;6.93;6.30;;;33.90;93.70;;;;;;5110776;28;20781;-65
2021/06/21 12:55:17;;;;;;;7.63;6.50;;;33.90;93.60;;;;;;5110507;28;20791;-69